createdAt,value
2022-07-26T00:02:30.148Z,99582.56
2022-07-26T00:05:00.529Z,99582.56
2022-07-26T00:07:36.625Z,99582.94
2022-07-26T00:10:04.199Z,99593.62
2022-07-26T00:12:35.254Z,99593.62
2022-07-26T00:15:08.392Z,99585.97
2022-07-26T00:17:39.594Z,99586.76
2022-07-26T00:20:10.973Z,99575.08
2022-07-26T00:22:41.459Z,99570.84
2022-07-26T00:25:11.741Z,99568.61
2022-07-26T00:27:42.184Z,99573.25
2022-07-26T00:30:14.862Z,99573.25
2022-07-26T00:32:45.497Z,99564.39
2022-07-26T00:35:16.128Z,99565.80
2022-07-26T00:37:47.578Z,99565.80
2022-07-26T00:40:18.544Z,99573.77
2022-07-26T00:42:53.344Z,99568.34
2022-07-26T00:45:24.034Z,99568.34
2022-07-26T00:47:54.487Z,99563.16
2022-07-26T00:50:24.958Z,99563.50
2022-07-26T00:52:55.469Z,99564.77
2022-07-26T00:55:26.119Z,99564.77
2022-07-26T00:57:57.804Z,99569.05
2022-07-26T01:00:28.739Z,99568.67
2022-07-26T01:02:59.247Z,99569.50
2022-07-26T01:05:32.103Z,99569.50
2022-07-26T01:08:03.929Z,99566.89
2022-07-26T01:10:35.114Z,99560.80
2022-07-26T01:13:05.949Z,99560.80
2022-07-26T01:15:37.405Z,99558.56
2022-07-26T01:18:07.843Z,99563.00
2022-07-26T01:20:38.545Z,99563.78
2022-07-26T01:23:15.817Z,99558.31
2022-07-26T01:25:48.773Z,99548.28
2022-07-26T01:28:20.557Z,99547.05
2022-07-26T01:30:50.999Z,99550.48
2022-07-26T01:33:21.419Z,99550.48
2022-07-26T01:35:51.791Z,99551.94
2022-07-26T01:38:22.624Z,99551.94
2022-07-26T01:40:53.269Z,99556.43
2022-07-26T01:43:23.862Z,99556.43
2022-07-26T01:45:54.284Z,99553.59
2022-07-26T01:48:24.673Z,99552.66
2022-07-26T01:50:55.157Z,99551.25
2022-07-26T01:53:25.655Z,99551.25
2022-07-26T01:55:56.099Z,99549.94
2022-07-26T01:58:26.586Z,99553.73
2022-07-26T02:00:57.069Z,99557.48
2022-07-26T02:03:27.441Z,99562.89
2022-07-26T02:05:58.105Z,99557.23
2022-07-26T02:08:28.479Z,99553.39
2022-07-26T02:10:59.903Z,99557.59
2022-07-26T02:13:34.803Z,99557.59
2022-07-26T02:16:07.969Z,99557.06
2022-07-26T02:18:38.740Z,99555.98
2022-07-26T02:21:09.693Z,99569.77
2022-07-26T02:23:41.946Z,99569.77
2022-07-26T02:26:12.049Z,99572.59
2022-07-26T02:28:42.318Z,99563.31
2022-07-26T02:31:12.825Z,99566.30
2022-07-26T02:33:44.822Z,99566.30
2022-07-26T02:36:15.300Z,99580.50
2022-07-26T02:38:45.680Z,99580.50
2022-07-26T02:41:16.166Z,99575.72
2022-07-26T02:43:46.977Z,99575.72
2022-07-26T02:46:17.346Z,99566.80
2022-07-26T02:48:47.818Z,99566.66
2022-07-26T02:51:18.260Z,99566.66
2022-07-26T02:53:48.610Z,99575.30
2022-07-26T02:56:18.870Z,99573.49
2022-07-26T02:58:49.351Z,99575.66
2022-07-26T03:01:19.857Z,99575.66
2022-07-26T03:03:50.965Z,99582.97
2022-07-26T03:06:22.915Z,99582.97
2022-07-26T03:08:55.563Z,99579.39
2022-07-26T03:11:26.057Z,99579.39
2022-07-26T03:13:56.380Z,99578.77
2022-07-26T03:16:29.648Z,99577.80
2022-07-26T03:19:00.943Z,99577.80
2022-07-26T03:21:49.427Z,99570.77
2022-07-26T03:24:19.851Z,99576.75
2022-07-26T03:26:52.158Z,99572.34
2022-07-26T03:29:22.512Z,99581.62
2022-07-26T03:31:52.871Z,99576.20
2022-07-26T03:34:23.248Z,99579.86
2022-07-26T03:36:53.729Z,99579.86
2022-07-26T03:39:24.164Z,99583.30
2022-07-26T03:41:54.514Z,99582.13
2022-07-26T03:44:24.927Z,99569.87
2022-07-26T03:46:55.323Z,99575.09
2022-07-26T03:49:25.922Z,99576.34
2022-07-26T03:51:56.312Z,99576.34
2022-07-26T03:54:26.682Z,99580.03
2022-07-26T03:56:57.196Z,99585.53
2022-07-26T03:59:27.671Z,99585.16
2022-07-26T04:01:58.117Z,99585.16
2022-07-26T04:04:28.595Z,99579.36
2022-07-26T04:07:03.232Z,99579.36
2022-07-26T04:09:32.031Z,99580.81
2022-07-26T04:12:02.512Z,99580.81
2022-07-26T04:14:33.077Z,99580.88
2022-07-26T04:17:03.640Z,99578.92
2022-07-26T04:19:33.981Z,99578.92
2022-07-26T04:22:06.246Z,99575.11
2022-07-26T04:24:36.888Z,99574.95
2022-07-26T04:27:07.401Z,99572.16
2022-07-26T04:29:38.051Z,99574.77
2022-07-26T04:32:08.565Z,99577.41
2022-07-26T04:34:39.125Z,99574.61
2022-07-26T04:37:12.216Z,99578.27
2022-07-26T04:39:42.618Z,99577.84
2022-07-26T04:42:13.001Z,99577.84
2022-07-26T04:44:43.377Z,99582.48
2022-07-26T04:47:13.801Z,99582.45
2022-07-26T04:49:52.069Z,99585.84
2022-07-26T04:52:24.512Z,99580.60
2022-07-26T04:54:56.099Z,99586.39
2022-07-26T04:57:26.511Z,99583.17
2022-07-26T05:00:16.762Z,99583.17
2022-07-26T05:02:35.699Z,99591.38
2022-07-26T05:05:07.044Z,99586.39
2022-07-26T05:07:48.209Z,99590.37
2022-07-26T05:10:19.549Z,99587.73
2022-07-26T05:12:50.731Z,99587.73
2022-07-26T05:15:21.091Z,99593.84
2022-07-26T05:17:51.514Z,99593.84
2022-07-26T05:20:27.350Z,99598.23
2022-07-26T05:23:00.942Z,99591.66
2022-07-26T05:25:37.511Z,99596.72
2022-07-26T05:28:07.996Z,99596.72
2022-07-26T05:30:38.783Z,99600.23
2022-07-26T05:33:09.299Z,99612.69
2022-07-26T05:35:49.740Z,99606.67
2022-07-26T05:38:16.048Z,99610.72
2022-07-26T05:40:50.732Z,99606.76
2022-07-26T05:43:19.685Z,99607.38
2022-07-26T05:45:50.236Z,99607.38
2022-07-26T05:48:20.586Z,99608.02
2022-07-26T05:50:51.069Z,99617.95
2022-07-26T05:53:22.793Z,99617.95
2022-07-26T05:55:54.616Z,99621.66
2022-07-26T05:58:25.067Z,99617.85
2022-07-26T06:00:55.424Z,99618.17
2022-07-26T06:03:28.545Z,99614.22
2022-07-26T06:06:04.889Z,99614.22
2022-07-26T06:08:36.348Z,99610.82
2022-07-26T06:11:06.850Z,99609.48
2022-07-26T06:16:36.138Z,99610.15
2022-07-26T06:19:06.684Z,99609.43
2022-07-26T06:21:46.092Z,99601.08
2022-07-26T06:24:18.190Z,99602.14
2022-07-26T06:26:56.345Z,99598.03
2022-07-26T06:29:32.304Z,99598.03
2022-07-26T06:32:00.412Z,99603.11
2022-07-26T06:34:31.142Z,99603.11
2022-07-26T06:37:01.560Z,99603.72
2022-07-26T06:39:32.040Z,99603.72
2022-07-26T06:42:02.903Z,99603.03
2022-07-26T06:44:33.407Z,99612.34
2022-07-26T06:47:04.060Z,99601.27
2022-07-26T06:49:36.908Z,99601.27
2022-07-26T06:52:07.569Z,99606.38
2022-07-26T06:54:38.036Z,99609.05
2022-07-26T06:57:08.378Z,99609.05
2022-07-26T06:59:38.654Z,99611.70
2022-07-26T07:02:09.060Z,99608.67
2022-07-26T07:04:39.477Z,99609.73
2022-07-26T07:07:09.787Z,99609.73
2022-07-26T07:09:43.511Z,99601.60
2022-07-26T07:12:14.477Z,99599.58
2022-07-26T07:14:44.847Z,99599.58
2022-07-26T07:17:20.248Z,99604.36
2022-07-26T07:19:52.285Z,99602.75
2022-07-26T07:22:22.771Z,99602.75
2022-07-26T07:24:53.747Z,99603.95
2022-07-26T07:27:24.510Z,99602.31
2022-07-26T07:29:56.638Z,99602.31
2022-07-26T07:32:28.638Z,99599.52
2022-07-26T07:35:01.021Z,99602.01
2022-07-26T07:37:52.128Z,99602.01
2022-07-26T07:40:09.977Z,99607.27
2022-07-26T07:42:40.269Z,99607.27
2022-07-26T07:45:11.998Z,99608.50
2022-07-26T07:47:42.341Z,99604.77
2022-07-26T07:50:12.808Z,99599.73
2022-07-26T07:52:43.834Z,99595.71
2022-07-26T07:55:36.772Z,99611.32
2022-07-26T07:57:46.375Z,99611.32
2022-07-26T08:00:17.819Z,99605.75
2022-07-26T08:02:48.630Z,99601.12
2022-07-26T08:05:19.340Z,99598.58
2022-07-26T08:07:52.543Z,99598.72
2022-07-26T08:10:23.601Z,99593.81
2022-07-26T08:12:55.555Z,99592.70
2022-07-26T08:15:26.423Z,99598.89
2022-07-26T08:17:57.226Z,99589.85
2022-07-26T08:20:28.977Z,99589.85
2022-07-26T08:23:01.496Z,99593.30
2022-07-26T08:25:34.688Z,99591.86
2022-07-26T08:28:31.042Z,99591.86
2022-07-26T08:30:46.608Z,99588.80
2022-07-26T08:33:17.017Z,99588.80
2022-07-26T08:35:48.247Z,99586.04
2022-07-26T08:38:18.906Z,99586.04
2022-07-26T08:40:49.327Z,99583.81
2022-07-26T08:43:19.867Z,99576.65
2022-07-26T08:45:51.001Z,99572.48
2022-07-26T08:48:22.116Z,99572.48
2022-07-26T08:50:53.148Z,99561.16
2022-07-26T08:53:24.341Z,99561.16
2022-07-26T08:56:07.064Z,99565.91
2022-07-26T08:58:33.839Z,99567.66
2022-07-26T09:01:07.154Z,99567.66
2022-07-26T09:03:39.158Z,99561.63
2022-07-26T09:06:22.304Z,99564.11
2022-07-26T09:08:53.581Z,99558.61
2022-07-26T09:11:30.056Z,99554.23
2022-07-26T09:14:03.028Z,99555.32
2022-07-26T09:16:43.972Z,99555.32
2022-07-26T09:19:22.452Z,99561.45
2022-07-26T09:21:54.510Z,99546.31
2022-07-26T09:24:38.202Z,99546.31
2022-07-26T09:27:14.118Z,99548.22
2022-07-26T09:29:53.145Z,99548.22
2022-07-26T09:32:26.606Z,99551.84
2022-07-26T09:35:44.661Z,99556.23
2022-07-26T09:37:49.187Z,99556.23
2022-07-26T09:40:20.252Z,99559.48
2022-07-26T09:46:06.729Z,99557.66
2022-07-26T09:49:08.131Z,99557.66
2022-07-26T09:51:13.856Z,99549.52
2022-07-26T09:53:46.991Z,99557.39
2022-07-26T09:56:17.722Z,99557.39
2022-07-26T09:58:50.773Z,99556.44
2022-07-26T10:01:21.308Z,99551.27
2022-07-26T10:03:53.193Z,99561.38
2022-07-26T10:06:30.083Z,99561.73
2022-07-26T10:09:02.188Z,99553.24
2022-07-26T10:11:54.780Z,99558.30
2022-07-26T10:17:58.746Z,99561.05
2022-07-26T10:20:44.243Z,99560.05
2022-07-26T10:23:40.184Z,99560.03
2022-07-26T10:26:39.086Z,99557.07
2022-07-26T10:29:22.471Z,99567.73
2022-07-26T10:32:19.846Z,99549.44
2022-07-26T10:35:09.022Z,99549.44
2022-07-26T10:37:28.305Z,99541.94
2022-07-26T10:40:19.275Z,99541.94
2022-07-26T10:42:53.887Z,99549.63
2022-07-26T10:45:29.829Z,99543.71
2022-07-26T10:48:20.984Z,99537.43
2022-07-26T10:51:06.957Z,99537.43
2022-07-26T10:53:43.611Z,99543.31
2022-07-26T10:56:29.861Z,99541.95
2022-07-26T10:58:58.396Z,99539.93
2022-07-26T11:01:43.117Z,99540.04
2022-07-26T11:04:23.989Z,99525.12
2022-07-26T11:06:59.171Z,99535.66
2022-07-26T11:09:36.528Z,99534.09
2022-07-26T11:12:39.276Z,99529.03
2022-07-26T11:18:17.217Z,99527.36
2022-07-26T11:20:53.174Z,99520.09
2022-07-26T11:23:44.072Z,99525.05
2022-07-26T11:26:22.130Z,99525.05
2022-07-26T11:28:56.333Z,99523.92
2022-07-26T11:31:51.984Z,99528.84
2022-07-26T11:34:26.708Z,99540.38
2022-07-26T11:36:59.683Z,99533.16
2022-07-26T11:39:43.704Z,99533.16
2022-07-26T11:42:13.004Z,99534.88
2022-07-26T11:44:53.568Z,99536.86
2022-07-26T11:47:28.280Z,99536.86
2022-07-26T11:50:13.957Z,99534.22
2022-07-26T11:52:46.288Z,99529.60
2022-07-26T11:55:32.019Z,99521.17
2022-07-26T11:58:08.581Z,99521.17
2022-07-26T12:00:39.576Z,99525.34
2022-07-26T12:03:10.719Z,99511.01
2022-07-26T12:05:42.837Z,99511.01
2022-07-26T12:08:16.817Z,99521.73
2022-07-26T12:10:59.418Z,99522.91
2022-07-26T12:13:29.768Z,99512.58
2022-07-26T12:16:25.268Z,99517.10
2022-07-26T12:18:57.853Z,99517.10
2022-07-26T12:22:07.880Z,99496.75
2022-07-26T12:25:06.587Z,99487.53
2022-07-26T12:27:41.274Z,99477.30
2022-07-26T12:30:19.193Z,99477.30
2022-07-26T12:35:34.160Z,99462.37
2022-07-26T12:38:08.852Z,99459.89
2022-07-26T12:40:44.305Z,99461.33
2022-07-26T12:43:14.646Z,99457.55
2022-07-26T12:45:46.801Z,99464.31
2022-07-26T12:48:17.785Z,99454.06
2022-07-26T12:50:48.073Z,99456.02
2022-07-26T12:53:21.170Z,99456.05
2022-07-26T12:55:52.237Z,99464.77
2022-07-26T12:58:22.938Z,99470.38
2022-07-26T13:04:05.202Z,99470.60
2022-07-26T13:06:36.141Z,99474.91
2022-07-26T13:09:06.558Z,99474.91
2022-07-26T13:11:39.625Z,99465.41
2022-07-26T13:14:14.220Z,99464.59
2022-07-26T13:16:46.078Z,99468.61
2022-07-26T13:19:17.296Z,99457.15
2022-07-26T13:21:53.073Z,99452.80
2022-07-26T13:24:23.345Z,99449.89
2022-07-26T13:27:00.755Z,99449.91
2022-07-26T13:29:31.701Z,99472.59
2022-07-26T13:32:07.202Z,99468.47
2022-07-26T13:34:38.002Z,99473.92
2022-07-26T13:37:10.291Z,99483.09
2022-07-26T13:39:41.601Z,99481.83
2022-07-26T13:42:12.712Z,99482.69
2022-07-26T13:44:47.408Z,99483.30
2022-07-26T13:47:20.148Z,99482.87
2022-07-26T13:49:51.386Z,99471.85
2022-07-26T13:52:21.851Z,99471.85
2022-07-26T13:54:53.773Z,99480.11
2022-07-26T13:57:24.638Z,99496.89
2022-07-26T14:00:02.459Z,99496.89
2022-07-26T14:02:35.087Z,99486.22
2022-07-26T14:05:05.832Z,99496.59
2022-07-26T14:07:39.766Z,99489.59
2022-07-26T14:10:11.985Z,99483.28
2022-07-26T14:12:47.238Z,99478.89
2022-07-26T14:15:23.000Z,99485.20
2022-07-26T14:17:53.812Z,99466.24
2022-07-26T14:20:25.604Z,99466.24
2022-07-26T14:23:01.790Z,99470.01
2022-07-26T14:25:35.253Z,99474.26
2022-07-26T14:28:05.777Z,99470.27
2022-07-26T14:30:44.423Z,99470.27
2022-07-26T14:33:15.792Z,99483.31
2022-07-26T14:35:46.297Z,99480.53
2022-07-26T14:38:24.333Z,99479.03
2022-07-26T14:40:52.137Z,99479.03
2022-07-26T14:43:27.751Z,99488.92
2022-07-26T14:46:00.820Z,99488.92
2022-07-26T14:48:53.456Z,99486.86
2022-07-26T14:51:12.436Z,99486.86
2022-07-26T14:53:43.460Z,99486.38
2022-07-26T14:56:14.531Z,99486.38
2022-07-26T14:58:46.778Z,99476.25
2022-07-26T15:01:17.426Z,99478.86
2022-07-26T15:03:48.568Z,99474.46
2022-07-26T15:06:19.022Z,99474.46
2022-07-26T15:08:50.039Z,99473.02
2022-07-26T15:11:20.344Z,99472.09
2022-07-26T15:13:51.747Z,99464.60
2022-07-26T15:16:23.094Z,99463.93
2022-07-26T15:18:56.035Z,99464.97
2022-07-26T15:21:27.129Z,99466.93
2022-07-26T15:24:00.181Z,99463.53
2022-07-26T15:26:34.216Z,99463.53
2022-07-26T15:29:06.239Z,99461.44
2022-07-26T15:31:37.921Z,99461.44
2022-07-26T15:34:09.581Z,99449.30
2022-07-26T15:36:42.957Z,99449.30
2022-07-26T15:39:17.061Z,99451.90
2022-07-26T15:41:51.628Z,99447.28
2022-07-26T15:44:25.531Z,99447.28
2022-07-26T15:46:55.849Z,99450.04
2022-07-26T15:49:26.993Z,99456.52
2022-07-26T15:52:01.530Z,99444.03
2022-07-26T15:54:33.256Z,99444.03
2022-07-26T15:57:06.219Z,99457.57
2022-07-26T15:59:38.191Z,99449.98
2022-07-26T16:02:10.806Z,99449.98
2022-07-26T16:04:41.187Z,99462.58
2022-07-26T16:07:11.833Z,99462.58
2022-07-26T16:09:42.651Z,99463.22
2022-07-26T16:12:13.608Z,99459.55
2022-07-26T16:14:44.605Z,99464.88
2022-07-26T16:17:16.141Z,99464.88
2022-07-26T16:19:46.649Z,99474.89
2022-07-26T16:22:21.716Z,99477.83
2022-07-26T16:24:52.397Z,99482.43
2022-07-26T16:27:22.935Z,99475.91
2022-07-26T16:29:59.228Z,99475.91
2022-07-26T16:32:30.437Z,99478.75
2022-07-26T16:35:06.908Z,99473.01
2022-07-26T16:37:38.570Z,99473.01
2022-07-26T16:40:10.683Z,99462.84
2022-07-26T16:42:41.063Z,99462.84
2022-07-26T16:45:11.654Z,99462.39
2022-07-26T16:47:54.581Z,99473.74
2022-07-26T16:50:28.969Z,99473.74
2022-07-26T16:52:59.713Z,99479.75
2022-07-26T16:55:30.584Z,99483.08
2022-07-26T16:58:06.943Z,99480.51
2022-07-26T17:00:39.927Z,99476.66
2022-07-26T17:06:28.737Z,99485.73
2022-07-26T17:08:59.186Z,99488.39
2022-07-26T17:11:45.551Z,99488.88
2022-07-26T17:14:16.310Z,99486.05
2022-07-26T17:16:51.437Z,99490.09
2022-07-26T17:19:22.716Z,99496.83
2022-07-26T17:21:53.230Z,99496.34
2022-07-26T17:24:23.908Z,99499.92
2022-07-26T17:26:54.521Z,99498.13
2022-07-26T17:29:24.986Z,99498.63
2022-07-26T17:31:55.462Z,99500.63
2022-07-26T17:34:30.202Z,99500.63
2022-07-26T17:37:21.821Z,99514.46
2022-07-26T17:39:59.810Z,99514.46
2022-07-26T17:42:31.064Z,99514.69
2022-07-26T17:45:13.301Z,99517.78
2022-07-26T17:47:43.933Z,99529.45
2022-07-26T17:52:52.304Z,99529.41
2022-07-26T17:55:27.083Z,99540.72
2022-07-26T17:57:58.585Z,99538.98
2022-07-26T18:00:29.622Z,99542.69
2022-07-26T18:06:24.619Z,99556.63
2022-07-26T18:08:55.764Z,99560.34
2022-07-26T18:11:29.169Z,99555.51
2022-07-26T18:27:08.065Z,99574.48
2022-07-26T18:29:40.405Z,99581.16
2022-07-26T18:32:26.666Z,99583.56
2022-07-26T18:34:57.623Z,99585.98
2022-07-26T18:37:28.503Z,99585.98
2022-07-26T18:39:58.885Z,99589.98
2022-07-26T18:42:29.407Z,99585.59
2022-07-26T18:45:00.180Z,99578.95
2022-07-26T18:47:30.648Z,99582.41
2022-07-26T18:50:02.789Z,99586.91
2022-07-26T18:52:33.348Z,99585.70
2022-07-26T18:55:06.803Z,99585.70
2022-07-26T18:57:39.546Z,99585.51
2022-07-26T19:00:13.028Z,99581.16
2022-07-26T19:02:46.784Z,99582.66
2022-07-26T19:05:21.822Z,99593.38
2022-07-26T19:07:55.678Z,99587.33
2022-07-26T19:10:27.693Z,99582.06
2022-07-26T19:13:00.977Z,99579.90
2022-07-26T19:15:32.622Z,99581.78
2022-07-26T19:18:10.995Z,99575.53
2022-07-26T19:20:44.610Z,99590.73
2022-07-26T19:23:15.361Z,99584.09
2022-07-26T19:25:45.882Z,99580.66
2022-07-26T19:28:17.722Z,99580.66
2022-07-26T19:30:51.416Z,99579.71
2022-07-26T19:33:23.942Z,99582.31
2022-07-26T19:35:54.510Z,99581.13
2022-07-26T19:38:25.667Z,99577.08
2022-07-26T19:41:06.956Z,99574.09
2022-07-26T19:43:40.501Z,99577.73
2022-07-26T19:46:13.514Z,99577.73
2022-07-26T19:48:48.349Z,99582.99
2022-07-26T19:51:32.718Z,99582.37
2022-07-26T19:54:12.469Z,99573.97
2022-07-26T19:56:42.968Z,99573.97
2022-07-26T19:59:16.888Z,99582.29
2022-07-26T20:01:48.632Z,99582.29
2022-07-26T20:04:20.355Z,99574.87
2022-07-26T20:06:51.379Z,99574.87
2022-07-26T20:09:28.439Z,99580.73
2022-07-26T20:11:59.947Z,99587.94
2022-07-26T20:14:31.165Z,99587.94
2022-07-26T20:17:13.081Z,99590.59
2022-07-26T20:19:37.958Z,99582.33
2022-07-26T20:22:13.447Z,99582.33
2022-07-26T20:24:43.859Z,99592.67
2022-07-26T20:27:15.388Z,99587.80
2022-07-26T20:30:01.140Z,99590.86
2022-07-26T20:32:31.609Z,99595.91
2022-07-26T20:38:27.999Z,99601.97
2022-07-26T20:40:58.688Z,99597.74
2022-07-26T20:43:32.183Z,99594.71
2022-07-26T20:46:04.607Z,99607.03
2022-07-26T20:48:35.180Z,99597.75
2022-07-26T20:51:05.883Z,99607.05
2022-07-26T20:53:39.353Z,99610.67
2022-07-26T20:56:10.354Z,99610.67
2022-07-26T20:58:41.352Z,99607.23
2022-07-26T21:01:14.031Z,99601.59
2022-07-26T21:03:48.031Z,99602.39
2022-07-26T21:06:21.595Z,99591.70
2022-07-26T21:08:52.481Z,99596.34
2022-07-26T21:11:24.961Z,99596.34
2022-07-26T21:13:59.168Z,99590.89
2022-07-26T21:16:30.111Z,99594.12
2022-07-26T21:19:05.346Z,99594.12
2022-07-26T21:21:38.135Z,99588.08
2022-07-26T21:24:08.999Z,99583.42
2022-07-26T21:26:39.396Z,99583.42
2022-07-26T21:29:10.374Z,99586.66
2022-07-26T21:32:14.125Z,99581.20
2022-07-26T21:34:45.382Z,99582.20
2022-07-26T21:37:15.848Z,99576.77
2022-07-26T21:39:46.959Z,99572.73
2022-07-26T21:42:17.790Z,99572.73
2022-07-26T21:44:48.706Z,99576.58
2022-07-26T21:47:19.165Z,99577.82
2022-07-26T21:49:50.338Z,99583.06
2022-07-26T21:52:20.719Z,99583.67
2022-07-26T21:54:51.252Z,99583.67
2022-07-26T21:57:21.751Z,99584.66
2022-07-26T21:59:52.402Z,99569.75
2022-07-26T22:02:22.887Z,99569.75
2022-07-26T22:04:54.211Z,99567.16
2022-07-26T22:07:26.386Z,99567.16
2022-07-26T22:09:58.186Z,99567.34
2022-07-26T22:12:28.734Z,99575.02
2022-07-26T22:14:59.779Z,99564.53
2022-07-26T22:17:30.300Z,99564.53
2022-07-26T22:20:01.285Z,99572.01
2022-07-26T22:22:32.153Z,99577.05
2022-07-26T22:25:02.504Z,99577.05
2022-07-26T22:27:33.121Z,99580.41
2022-07-26T22:30:03.997Z,99579.41
2022-07-26T22:32:35.178Z,99575.83
2022-07-26T22:35:06.593Z,99575.83
2022-07-26T22:37:37.393Z,99573.98
2022-07-26T22:40:08.927Z,99582.04
2022-07-26T22:42:39.543Z,99582.05
2022-07-26T22:45:10.756Z,99582.05
2022-07-26T22:47:46.957Z,99578.80
2022-07-26T22:50:14.367Z,99578.80
2022-07-26T22:52:45.212Z,99587.05
2022-07-26T22:55:22.548Z,99591.89
2022-07-26T22:57:53.069Z,99591.89
2022-07-26T23:00:23.681Z,99579.00
2022-07-26T23:02:54.853Z,99579.00
2022-07-26T23:05:37.434Z,99575.19
2022-07-26T23:08:03.286Z,99581.01
2022-07-26T23:10:30.231Z,99581.01
2022-07-26T23:13:00.593Z,99578.20
2022-07-26T23:15:31.532Z,99579.00
2022-07-26T23:18:02.560Z,99577.59
2022-07-26T23:20:33.179Z,99573.74
2022-07-26T23:23:03.657Z,99573.74
2022-07-26T23:25:34.218Z,99574.31
2022-07-26T23:28:04.890Z,99568.52
2022-07-26T23:30:36.832Z,99558.84
2022-07-26T23:33:07.134Z,99558.84
2022-07-26T23:35:38.317Z,99559.45
2022-07-26T23:38:08.771Z,99569.48
2022-07-26T23:40:39.335Z,99557.81
2022-07-26T23:43:11.888Z,99557.81
2022-07-26T23:45:42.739Z,99566.80
2022-07-26T23:48:13.422Z,99565.48
2022-07-26T23:50:43.952Z,99571.48
2022-07-26T23:53:14.393Z,99570.45
2022-07-26T23:55:44.724Z,99564.36
2022-07-26T23:58:17.456Z,99566.19
